Time;durP1;ratioP1;P1;durP2;ratioP2;P2;SDS_P1;SDS_P2;PMS_P1;PMS_P2;Temp;Humidity;BMP_temperature;BMP_pressure;BME280_temperature;BME280_humidity;BME280_pressure;Samples;Min_cycle;Max_cycle;Signal;HPM_P1;HPM_P2
2022/01/21 00:00:08;;;;;;;1.97;1.93;;;16.40;64.60;;;;;;5070852;28;43878;-71
2022/01/21 00:02:38;;;;;;;1.97;1.97;;;16.60;64.50;;;;;;5087104;28;43984;-72
2022/01/21 00:05:09;;;;;;;2.10;2.00;;;16.70;63.90;;;;;;5069760;28;44665;-71
2022/01/21 00:07:38;;;;;;;1.97;1.87;;;16.80;63.30;;;;;;5080672;28;43446;-71
2022/01/21 00:10:09;;;;;;;1.93;1.93;;;16.90;63.00;;;;;;5070575;28;43959;-71
2022/01/21 00:12:38;;;;;;;1.70;1.70;;;16.90;62.90;;;;;;5081208;28;44043;-72
2022/01/21 00:15:08;;;;;;;2.20;2.10;;;16.90;63.10;;;;;;5069898;28;44031;-72
2022/01/21 00:17:36;;;;;;;1.90;1.90;;;16.80;63.30;;;;;;5070553;28;44057;-72
2022/01/21 00:31:12;;;;;;;1.67;1.67;;;16.50;64.10;;;;;;5086666;28;44305;-72
2022/01/21 00:33:40;;;;;;;1.93;1.70;;;16.50;64.30;;;;;;5069629;28;45007;-71
2022/01/21 00:36:09;;;;;;;2.10;2.00;;;16.40;64.30;;;;;;5053057;28;44095;-72
2022/01/21 00:38:41;;;;;;;1.97;1.97;;;16.40;64.50;;;;;;5068587;28;43907;-72
2022/01/21 00:41:11;;;;;;;1.97;1.87;;;16.50;65.10;;;;;;5070752;28;43990;-72
2022/01/21 00:43:44;;;;;;;1.80;1.80;;;16.60;63.90;;;;;;5069520;28;45565;-71
2022/01/21 00:46:14;;;;;;;2.10;2.00;;;16.60;63.60;;;;;;5070794;28;44058;-72
2022/01/21 00:48:42;;;;;;;1.60;1.60;;;16.60;63.60;;;;;;5079610;28;44148;-71
2022/01/21 00:51:11;;;;;;;1.57;1.57;;;16.60;63.80;;;;;;5070084;28;44223;-71
2022/01/21 00:53:41;;;;;;;1.73;1.73;;;16.50;63.80;;;;;;5079327;28;44018;-72
2022/01/21 00:56:09;;;;;;;1.80;1.70;;;16.50;64.70;;;;;;5080721;28;43889;-71
2022/01/21 00:58:38;;;;;;;1.90;1.80;;;16.50;64.20;;;;;;5086325;27;44159;-72
2022/01/21 01:01:06;;;;;;;1.47;1.47;;;16.40;64.20;;;;;;5069746;28;43993;-71
2022/01/21 01:03:34;;;;;;;1.90;1.80;;;16.40;64.30;;;;;;5069464;28;45116;-71
2022/01/21 01:06:03;;;;;;;1.50;1.50;;;16.40;64.40;;;;;;5069063;28;44370;-72
2022/01/21 01:08:31;;;;;;;1.60;1.60;;;16.40;64.50;;;;;;5069426;28;43997;-71
2022/01/21 01:11:21;;;;;;;2.00;1.90;;;16.30;64.50;;;;;;5069537;28;43878;-72
2022/01/21 01:22:09;;;;;;;1.70;1.60;;;16.50;64.60;;;;;;5086412;28;43884;-72
2022/01/21 01:27:40;;;;;;;1.80;1.80;;;16.80;63.50;;;;;;5086094;28;44098;-71
2022/01/21 01:30:11;;;;;;;1.67;1.67;;;16.90;63.00;;;;;;5053271;28;43416;-72
2022/01/21 01:32:40;;;;;;;1.63;1.63;;;16.90;63.60;;;;;;5069444;28;43990;-72
2022/01/21 01:35:11;;;;;;;1.80;1.70;;;16.80;63.00;;;;;;5052029;28;45322;-71
2022/01/21 01:40:26;;;;;;;1.47;1.47;;;16.70;63.50;;;;;;5084073;28;43968;-73
2022/01/21 01:51:17;;;;;;;1.60;1.60;;;16.50;64.20;;;;;;5085039;28;43979;-71
2022/01/21 01:53:48;;;;;;;1.30;1.30;;;16.40;64.10;;;;;;5068942;28;43992;-71
2022/01/21 01:56:18;;;;;;;1.23;1.23;;;16.40;64.30;;;;;;5068328;28;44039;-71
2022/01/21 01:58:49;;;;;;;1.80;1.70;;;16.40;64.50;;;;;;5068470;28;44476;-72
2022/01/21 02:01:17;;;;;;;1.40;1.40;;;16.50;64.30;;;;;;5086201;28;44580;-72
2022/01/21 02:03:45;;;;;;;1.30;1.30;;;16.60;64.00;;;;;;5052173;28;43921;-71
2022/01/21 02:06:14;;;;;;;1.40;1.40;;;16.60;63.70;;;;;;5085068;28;44337;-71
2022/01/21 02:08:42;;;;;;;1.50;1.50;;;16.60;63.70;;;;;;5068678;28;44387;-71
2022/01/21 02:11:11;;;;;;;1.33;1.33;;;16.60;63.80;;;;;;5085113;27;44031;-72
2022/01/21 02:13:44;;;;;;;1.43;1.43;;;16.50;63.90;;;;;;5052103;28;44061;-72
2022/01/21 02:16:30;;;;;;;1.40;1.40;;;16.50;64.10;;;;;;5051952;28;46391;-72
2022/01/21 02:21:46;;;;;;;1.50;1.50;;;16.40;64.20;;;;;;5086642;28;43960;-71
2022/01/21 02:24:17;;;;;;;1.40;1.40;;;16.40;65.10;;;;;;5085419;28;43947;-72
2022/01/21 02:26:47;;;;;;;1.50;1.50;;;16.40;64.50;;;;;;5068174;28;45478;-71
2022/01/21 02:29:27;;;;;;;1.27;1.27;;;16.40;64.50;;;;;;5068580;28;44734;-71
2022/01/21 02:31:58;;;;;;;1.27;1.27;;;16.30;64.50;;;;;;5069665;28;44016;-72
2022/01/21 02:34:26;;;;;;;1.30;1.30;;;16.30;64.50;;;;;;5068560;28;44278;-71
2022/01/21 02:36:56;;;;;;;1.50;1.40;;;16.30;64.50;;;;;;5051046;28;44055;-71
2022/01/21 02:39:24;;;;;;;1.20;1.20;;;16.30;64.50;;;;;;5084722;28;45900;-71
2022/01/21 02:41:55;;;;;;;1.57;1.57;;;16.50;64.40;;;;;;5068198;28;43872;-71
2022/01/21 02:44:24;;;;;;;1.40;1.40;;;16.60;63.90;;;;;;5052159;28;44218;-72
2022/01/21 02:46:57;;;;;;;1.60;1.60;;;16.80;63.50;;;;;;5068094;28;43836;-71
2022/01/21 02:49:27;;;;;;;1.53;1.53;;;16.90;63.10;;;;;;5068666;28;43872;-72
2022/01/21 02:51:57;;;;;;;1.20;1.20;;;16.90;63.00;;;;;;5084889;28;43967;-72
2022/01/21 02:54:26;;;;;;;1.40;1.40;;;16.80;63.00;;;;;;5068141;28;44085;-73
2022/01/21 02:56:57;;;;;;;1.73;1.73;;;16.70;63.20;;;;;;5084332;28;43974;-72
2022/01/21 02:59:26;;;;;;;1.40;1.40;;;16.70;63.50;;;;;;5051459;28;43452;-72
2022/01/21 03:01:54;;;;;;;1.50;1.50;;;16.60;63.60;;;;;;5078717;27;44098;-72
2022/01/21 03:04:30;;;;;;;1.37;1.37;;;16.50;63.70;;;;;;5065354;28;44247;-72
2022/01/21 03:07:00;;;;;;;1.20;1.20;;;16.50;64.00;;;;;;5072327;28;45327;-72
2022/01/21 03:09:29;;;;;;;1.33;1.33;;;16.50;64.10;;;;;;5054279;28;44964;-71
2022/01/21 03:11:57;;;;;;;1.40;1.30;;;16.40;64.10;;;;;;5071194;28;43906;-71
2022/01/21 03:14:26;;;;;;;1.30;1.30;;;16.40;64.20;;;;;;5088190;28;43847;-71
2022/01/21 03:16:55;;;;;;;1.20;1.20;;;16.40;64.40;;;;;;5087487;28;44116;-71
2022/01/21 03:19:24;;;;;;;1.23;1.23;;;16.40;64.50;;;;;;5087672;28;45726;-72
2022/01/21 03:21:52;;;;;;;1.30;1.30;;;16.50;64.20;;;;;;5071225;28;44010;-72
2022/01/21 03:24:22;;;;;;;1.40;1.30;;;16.60;63.80;;;;;;5088393;28;43617;-71
2022/01/21 03:26:51;;;;;;;1.00;1.00;;;16.60;63.80;;;;;;5054216;28;44944;-72
2022/01/21 03:29:19;;;;;;;1.30;1.30;;;16.60;63.80;;;;;;5087844;27;44394;-71
2022/01/21 03:31:47;;;;;;;1.20;1.20;;;16.50;63.80;;;;;;5053767;28;43950;-72
2022/01/21 03:34:15;;;;;;;1.10;1.10;;;16.40;64.00;;;;;;5071230;28;43825;-72
2022/01/21 03:36:44;;;;;;;1.30;1.30;;;16.40;64.10;;;;;;5087019;28;45580;-72
2022/01/21 03:39:12;;;;;;;1.30;1.30;;;16.40;64.30;;;;;;5087418;27;44401;-72
2022/01/21 03:41:42;;;;;;;1.37;1.30;;;16.40;64.40;;;;;;5053945;28;43404;-72
2022/01/21 03:44:12;;;;;;;1.33;1.33;;;16.30;64.50;;;;;;5071346;28;44054;-72
2022/01/21 03:46:40;;;;;;;1.40;1.40;;;16.30;64.50;;;;;;5053884;28;44091;-72
2022/01/21 03:49:09;;;;;;;1.30;1.30;;;16.30;64.50;;;;;;5070429;28;44476;-72
2022/01/21 03:51:39;;;;;;;1.30;1.30;;;16.30;64.60;;;;;;5071183;28;43346;-71
2022/01/21 03:54:07;;;;;;;1.33;1.33;;;16.30;64.60;;;;;;5088023;27;44055;-72
2022/01/21 03:56:37;;;;;;;1.20;1.20;;;16.30;64.70;;;;;;5070050;28;46488;-72
2022/01/21 03:59:07;;;;;;;1.30;1.30;;;16.30;64.80;;;;;;5070402;28;44721;-71
2022/01/21 04:01:35;;;;;;;1.50;1.40;;;16.40;64.60;;;;;;5053596;28;44012;-72
2022/01/21 04:04:06;;;;;;;1.37;1.33;;;16.60;64.10;;;;;;5071075;28;43942;-71
2022/01/21 04:06:37;;;;;;;1.20;1.20;;;16.80;63.60;;;;;;5086955;28;44134;-71
2022/01/21 04:09:06;;;;;;;1.30;1.30;;;16.90;63.10;;;;;;5070540;28;44665;-71
2022/01/21 04:11:36;;;;;;;1.30;1.30;;;16.90;62.90;;;;;;5087163;28;43988;-71
2022/01/21 04:14:06;;;;;;;1.40;1.40;;;16.80;62.90;;;;;;5087245;27;43966;-71
2022/01/21 04:16:34;;;;;;;1.30;1.30;;;16.80;63.90;;;;;;5086563;28;45019;-72
2022/01/21 04:19:02;;;;;;;1.37;1.27;;;16.70;63.40;;;;;;5053366;28;44698;-71
2022/01/21 04:21:32;;;;;;;1.40;1.40;;;16.60;63.60;;;;;;5070296;28;43395;-72
2022/01/21 04:24:03;;;;;;;1.10;1.10;;;16.50;63.70;;;;;;5070801;28;44080;-71
2022/01/21 04:26:37;;;;;;;1.33;1.33;;;16.50;63.90;;;;;;5086497;28;45645;-71
2022/01/21 04:29:10;;;;;;;1.40;1.40;;;16.50;64.10;;;;;;5070285;28;44089;-71
2022/01/21 04:31:49;;;;;;;1.20;1.20;;;16.40;64.10;;;;;;5071207;28;44036;-72
2022/01/21 04:34:21;;;;;;;1.40;1.40;;;16.40;64.20;;;;;;5087334;28;44111;-71
2022/01/21 04:36:49;;;;;;;1.20;1.20;;;16.40;64.30;;;;;;5069718;28;43912;-72
2022/01/21 04:39:27;;;;;;;1.23;1.23;;;16.40;64.50;;;;;;5070546;28;45540;-71
2022/01/21 04:47:30;;;;;;;1.27;1.27;;;16.60;63.70;;;;;;5072162;28;44073;-71
2022/01/21 04:49:58;;;;;;;1.37;1.30;;;16.60;63.80;;;;;;5086173;28;45581;-71
2022/01/21 04:52:27;;;;;;;1.40;1.40;;;16.50;63.90;;;;;;5052867;28;44051;-71
2022/01/21 04:55:07;;;;;;;1.43;1.40;;;16.50;64.00;;;;;;5086619;28;43830;-72
2022/01/21 04:57:37;;;;;;;1.13;1.13;;;16.40;64.10;;;;;;5086090;28;45424;-71
2022/01/21 05:00:09;;;;;;;1.10;1.10;;;16.40;64.20;;;;;;5069345;28;44384;-71
2022/01/21 05:02:39;;;;;;;1.20;1.20;;;16.40;64.30;;;;;;5053436;28;43970;-71
2022/01/21 05:05:12;;;;;;;1.30;1.30;;;16.30;64.40;;;;;;5097377;27;44085;-71
2022/01/21 05:07:42;;;;;;;1.20;1.20;;;16.30;64.50;;;;;;5069384;28;45625;-70
2022/01/21 05:10:11;;;;;;;1.20;1.20;;;16.30;64.50;;;;;;5069357;28;44765;-72
2022/01/21 05:12:40;;;;;;;1.20;1.20;;;16.30;64.50;;;;;;5069229;28;43299;-72
2022/01/21 05:15:20;;;;;;;1.27;1.27;;;16.30;64.60;;;;;;5069609;28;43636;-72
2022/01/21 05:17:50;;;;;;;1.43;1.43;;;16.30;64.60;;;;;;5070514;28;44760;-71
2022/01/21 05:20:36;;;;;;;1.27;1.27;;;16.30;64.50;;;;;;5083423;28;43314;-71
2022/01/21 05:23:23;;;;;;;1.40;1.40;;;16.50;64.30;;;;;;5083432;28;43946;-71
2022/01/21 05:25:52;;;;;;;1.23;1.20;;;16.70;63.80;;;;;;5069017;28;44035;-71
2022/01/21 05:28:21;;;;;;;1.30;1.30;;;16.80;63.30;;;;;;5052380;28;45114;-71
2022/01/21 05:31:08;;;;;;;1.20;1.20;;;16.80;62.90;;;;;;5071018;28;43949;-71
2022/01/21 05:33:51;;;;;;;1.60;1.60;;;16.80;62.90;;;;;;5071526;28;43882;-72
2022/01/21 05:36:49;;;;;;;1.30;1.30;;;16.70;63.10;;;;;;5080949;28;44101;-70
2022/01/21 05:39:25;;;;;;;1.30;1.30;;;16.60;63.30;;;;;;5069867;28;45715;-71
2022/01/21 05:42:10;;;;;;;1.20;1.20;;;16.50;63.60;;;;;;5056443;28;43944;-71
2022/01/21 05:47:52;;;;;;;1.47;1.37;;;16.40;63.90;;;;;;5072775;28;44030;-71
2022/01/21 05:50:46;;;;;;;1.33;1.33;;;16.40;64.20;;;;;;5082407;28;43682;-71
2022/01/21 05:53:39;;;;;;;1.67;1.57;;;16.40;64.20;;;;;;5071732;28;45840;-72
2022/01/21 05:56:24;;;;;;;1.17;1.17;;;16.30;64.30;;;;;;5085854;28;44091;-72
2022/01/21 05:59:09;;;;;;;1.30;1.30;;;16.30;64.50;;;;;;5071714;28;44172;-72
2022/01/21 06:01:37;;;;;;;1.30;1.30;;;16.40;64.30;;;;;;5068503;28;45881;-71
2022/01/21 06:04:07;;;;;;;1.37;1.37;;;16.50;63.80;;;;;;5085431;28;43975;-71
2022/01/21 06:06:36;;;;;;;1.30;1.30;;;16.50;63.70;;;;;;5086712;27;43975;-72
2022/01/21 06:09:05;;;;;;;1.17;1.17;;;16.50;63.80;;;;;;5068774;28;43439;-71
2022/01/21 06:11:33;;;;;;;1.33;1.33;;;16.50;63.90;;;;;;5085246;28;45180;-71
2022/01/21 06:14:02;;;;;;;1.33;1.33;;;16.40;64.00;;;;;;5068372;28;43989;-71
2022/01/21 06:16:30;;;;;;;1.43;1.33;;;16.40;64.10;;;;;;5068655;28;44127;-72
2022/01/21 06:19:00;;;;;;;1.47;1.47;;;16.40;64.30;;;;;;5068887;28;44120;-71
2022/01/21 06:21:29;;;;;;;1.13;1.13;;;16.30;64.40;;;;;;5068326;28;44155;-72
2022/01/21 06:23:58;;;;;;;1.20;1.20;;;16.30;64.50;;;;;;5068264;28;43855;-71
2022/01/21 06:26:27;;;;;;;1.40;1.40;;;16.30;64.50;;;;;;5051875;28;43950;-71
2022/01/21 06:28:55;;;;;;;1.30;1.30;;;16.30;64.60;;;;;;5068567;28;43912;-72
2022/01/21 06:31:24;;;;;;;1.37;1.37;;;16.30;64.50;;;;;;5067405;28;44422;-72
2022/01/21 06:33:52;;;;;;;1.30;1.30;;;16.30;64.60;;;;;;5085228;28;44015;-71
2022/01/21 06:36:21;;;;;;;1.20;1.20;;;16.20;64.60;;;;;;5068364;28;43970;-72
2022/01/21 06:38:50;;;;;;;1.63;1.63;;;16.20;64.70;;;;;;5072081;28;43507;-71
2022/01/21 06:41:19;;;;;;;1.60;1.50;;;16.30;64.60;;;;;;5065139;28;43859;-71
2022/01/21 06:43:47;;;;;;;1.30;1.30;;;16.50;64.40;;;;;;5065303;28;43951;-71
2022/01/21 06:46:15;;;;;;;1.80;1.70;;;16.60;63.80;;;;;;5081804;28;43450;-71
2022/01/21 06:48:44;;;;;;;1.50;1.50;;;16.70;64.00;;;;;;5051589;28;43901;-72
2022/01/21 06:51:12;;;;;;;1.20;1.20;;;16.80;63.00;;;;;;5048163;28;45207;-71
2022/01/21 06:53:40;;;;;;;1.50;1.40;;;16.70;62.90;;;;;;5064843;28;43999;-71
2022/01/21 06:56:10;;;;;;;1.50;1.50;;;16.70;63.20;;;;;;5071480;28;44054;-72
2022/01/21 06:58:38;;;;;;;1.27;1.27;;;16.60;63.40;;;;;;5065366;28;43611;-71
2022/01/21 07:01:06;;;;;;;1.40;1.40;;;16.60;63.70;;;;;;5088382;28;44044;-71
2022/01/21 07:03:35;;;;;;;1.27;1.27;;;16.50;63.90;;;;;;5087855;27;44044;-71
2022/01/21 07:06:05;;;;;;;1.70;1.60;;;16.40;64.00;;;;;;5071346;28;43905;-71
2022/01/21 07:08:34;;;;;;;1.33;1.33;;;16.40;64.10;;;;;;5088494;28;44025;-71
2022/01/21 07:11:03;;;;;;;1.23;1.23;;;16.30;64.20;;;;;;5071305;28;45291;-70
2022/01/21 07:13:34;;;;;;;1.40;1.40;;;16.30;64.30;;;;;;5070904;28;43958;-71
2022/01/21 07:16:02;;;;;;;1.43;1.43;;;16.30;64.40;;;;;;5087871;28;43788;-71
2022/01/21 07:18:30;;;;;;;1.30;1.30;;;16.30;64.50;;;;;;5071181;28;44049;-71
2022/01/21 07:20:59;;;;;;;1.80;1.80;;;16.30;64.60;;;;;;5070748;28;43945;-72
2022/01/21 07:23:27;;;;;;;1.50;1.50;;;16.40;64.30;;;;;;5086615;27;44020;-71
2022/01/21 07:25:57;;;;;;;1.43;1.43;;;16.50;63.90;;;;;;5087848;28;44047;-72
2022/01/21 07:28:25;;;;;;;1.33;1.30;;;16.50;63.70;;;;;;5071419;28;43980;-71
2022/01/21 07:30:55;;;;;;;1.40;1.40;;;16.50;63.90;;;;;;5070299;28;43915;-72
2022/01/21 07:33:24;;;;;;;1.40;1.40;;;16.40;63.90;;;;;;5089111;27;44251;-71
2022/01/21 07:35:52;;;;;;;1.30;1.30;;;16.40;64.10;;;;;;5089256;27;43852;-71
2022/01/21 07:38:20;;;;;;;1.40;1.40;;;16.40;64.20;;;;;;5071513;28;44147;-71
2022/01/21 07:40:49;;;;;;;1.57;1.47;;;16.30;64.40;;;;;;5064440;28;46554;-71
2022/01/21 07:43:17;;;;;;;1.37;1.37;;;16.30;64.50;;;;;;5081474;28;44091;-72
2022/01/21 07:45:45;;;;;;;1.57;1.57;;;16.30;64.50;;;;;;5064536;28;43985;-71
2022/01/21 07:48:15;;;;;;;1.20;1.20;;;16.30;64.50;;;;;;5053973;28;43611;-71
2022/01/21 07:50:43;;;;;;;1.40;1.40;;;16.20;64.50;;;;;;5087061;27;43889;-72
2022/01/21 07:53:12;;;;;;;1.60;1.50;;;16.20;64.50;;;;;;5070384;28;44004;-71
2022/01/21 07:55:40;;;;;;;1.67;1.67;;;16.20;64.60;;;;;;5070473;28;44045;-71
2022/01/21 07:58:09;;;;;;;1.50;1.50;;;16.20;64.70;;;;;;5087390;28;43895;-71
2022/01/21 08:00:37;;;;;;;1.70;1.70;;;16.20;64.70;;;;;;5070197;28;44050;-71
2022/01/21 08:03:05;;;;;;;1.50;1.50;;;16.40;64.70;;;;;;5070504;28;43904;-72
2022/01/21 08:05:35;;;;;;;1.47;1.47;;;16.50;64.10;;;;;;5070292;28;44058;-73
2022/01/21 08:08:04;;;;;;;1.87;1.77;;;16.60;63.70;;;;;;5087424;28;44075;-71
2022/01/21 08:10:33;;;;;;;1.60;1.60;;;16.70;62.50;;;;;;5070258;28;43989;-72
2022/01/21 08:13:01;;;;;;;2.00;1.90;;;16.70;62.40;;;;;;5070369;28;44679;-71
2022/01/21 08:15:30;;;;;;;2.47;1.90;;;16.70;62.80;;;;;;5070288;28;43410;-73
2022/01/21 08:17:59;;;;;;;2.57;1.80;;;16.60;63.10;;;;;;5087268;27;43923;-71
2022/01/21 08:20:28;;;;;;;59.27;6.00;;;16.50;63.30;;;;;;5086704;28;43873;-72
2022/01/21 08:22:57;;;;;;;24.57;3.70;;;16.50;64.40;;;;;;5069904;28;44157;-72
2022/01/21 08:25:29;;;;;;;15.07;2.63;;;16.40;64.20;;;;;;5070672;28;44028;-73
2022/01/21 08:27:57;;;;;;;10.97;3.13;;;16.30;64.80;;;;;;5070088;28;43625;-71
2022/01/21 08:30:25;;;;;;;9.27;2.77;;;16.30;64.60;;;;;;5052506;28;45607;-73
2022/01/21 08:32:56;;;;;;;10.60;3.40;;;16.30;64.50;;;;;;5053301;28;43388;-72
2022/01/21 08:35:24;;;;;;;10.40;3.30;;;16.30;64.40;;;;;;5070655;28;43358;-73
2022/01/21 08:37:53;;;;;;;7.50;3.20;;;16.30;65.10;;;;;;5087297;27;43610;-72
2022/01/21 08:40:23;;;;;;;26.33;3.83;;;16.30;63.50;;;;;;5069779;28;43967;-71
2022/01/21 08:42:54;;;;;;;18.37;3.27;;;16.30;63.00;;;;;;5070406;28;44010;-72
2022/01/21 08:45:22;;;;;;;9.87;3.07;;;16.40;62.80;;;;;;5070441;28;43884;-72
2022/01/21 08:47:54;;;;;;;10.33;3.10;;;16.40;62.90;;;;;;5071017;28;44345;-72
2022/01/21 08:50:26;;;;;;;12.43;3.47;;;16.40;63.10;;;;;;5086598;28;43783;-72
2022/01/21 08:53:06;;;;;;;4.20;3.30;;;16.40;63.50;;;;;;5086347;28;43917;-72
2022/01/21 08:55:36;;;;;;;4.60;2.90;;;16.40;63.80;;;;;;5071239;28;43790;-72
2022/01/21 08:58:05;;;;;;;4.17;2.70;;;16.30;64.00;;;;;;5053246;28;43938;-71
2022/01/21 09:00:35;;;;;;;4.10;2.60;;;16.30;64.10;;;;;;5051781;28;44227;-72
2022/01/21 09:03:03;;;;;;;5.33;2.57;;;16.30;64.30;;;;;;5070016;28;43972;-72
2022/01/21 09:05:32;;;;;;;6.47;2.50;;;16.20;64.30;;;;;;5069673;28;44008;-72
2022/01/21 09:08:00;;;;;;;4.43;2.53;;;16.20;64.30;;;;;;5069918;28;43832;-72
2022/01/21 09:10:30;;;;;;;5.60;2.83;;;16.20;64.30;;;;;;5052670;28;44051;-72
2022/01/21 09:12:59;;;;;;;5.93;2.93;;;16.20;64.40;;;;;;5086141;28;43448;-73
2022/01/21 09:15:28;;;;;;;4.47;2.67;;;16.20;64.40;;;;;;5069737;28;43978;-72
2022/01/21 09:18:04;;;;;;;4.27;2.77;;;16.20;64.50;;;;;;5070168;28;44178;-72
2022/01/21 09:20:32;;;;;;;3.20;2.33;;;16.20;64.20;;;;;;5069730;28;43944;-72
2022/01/21 09:23:01;;;;;;;3.97;2.87;;;16.30;64.10;;;;;;5069017;28;44029;-72
2022/01/21 09:25:30;;;;;;;6.37;2.97;;;16.40;63.60;;;;;;5069488;28;44055;-72
2022/01/21 09:28:01;;;;;;;6.70;2.20;;;16.60;63.10;;;;;;5086323;28;43730;-73
2022/01/21 09:30:29;;;;;;;3.60;2.57;;;16.70;62.70;;;;;;5068485;28;44035;-72
2022/01/21 09:32:58;;;;;;;4.90;2.77;;;16.60;62.70;;;;;;5052217;28;43963;-73
2022/01/21 09:35:26;;;;;;;3.73;2.43;;;16.60;63.00;;;;;;5069083;28;43795;-72
2022/01/21 09:37:54;;;;;;;3.00;2.70;;;16.60;63.20;;;;;;5086250;28;44000;-72
2022/01/21 09:40:45;;;;;;;2.67;2.47;;;16.50;64.10;;;;;;5071454;28;43964;-71
2022/01/21 09:43:14;;;;;;;5.10;2.43;;;16.40;63.50;;;;;;5049349;28;43968;-73
2022/01/21 09:45:43;;;;;;;2.30;2.10;;;16.40;63.80;;;;;;5052400;28;43851;-72
2022/01/21 09:48:12;;;;;;;3.10;2.47;;;16.30;63.90;;;;;;5069536;28;43992;-72
2022/01/21 09:50:42;;;;;;;2.40;2.20;;;16.30;64.10;;;;;;5068944;28;44071;-72
2022/01/21 09:53:11;;;;;;;2.77;2.53;;;16.30;64.00;;;;;;5069190;28;44225;-72
2022/01/21 09:55:39;;;;;;;2.70;2.30;;;16.30;64.10;;;;;;5068997;28;44090;-72
2022/01/21 09:58:08;;;;;;;3.70;2.53;;;16.20;64.20;;;;;;5069412;28;44469;-72
2022/01/21 10:00:37;;;;;;;2.93;2.70;;;16.20;64.10;;;;;;5085405;28;43996;-72
2022/01/21 10:03:06;;;;;;;3.43;2.50;;;16.30;64.00;;;;;;5085482;28;44028;-72
2022/01/21 10:05:34;;;;;;;3.30;2.67;;;16.30;63.50;;;;;;5068738;28;43393;-73
2022/01/21 10:08:03;;;;;;;2.97;2.77;;;16.40;63.60;;;;;;5069018;28;43997;-71
2022/01/21 10:10:31;;;;;;;2.70;2.50;;;16.40;63.70;;;;;;5068411;27;44923;-73
2022/01/21 10:13:03;;;;;;;4.40;2.90;;;16.40;64.50;;;;;;5088987;27;44043;-72
2022/01/21 10:15:31;;;;;;;5.00;3.50;;;16.40;63.90;;;;;;5089255;28;43970;-73
2022/01/21 10:18:02;;;;;;;7.00;4.00;;;16.30;64.00;;;;;;5072217;28;44040;-73
2022/01/21 10:20:39;;;;;;;7.90;4.93;;;16.30;64.10;;;;;;5074054;28;44022;-72
2022/01/21 10:23:09;;;;;;;11.10;4.63;;;16.30;64.20;;;;;;5055247;28;44082;-72
2022/01/21 10:25:40;;;;;;;10.03;5.37;;;16.30;64.30;;;;;;5073077;28;44360;-72
2022/01/21 10:28:12;;;;;;;11.50;5.53;;;16.30;64.40;;;;;;5090912;27;43994;-71
2022/01/21 10:30:43;;;;;;;13.87;5.97;;;16.20;64.40;;;;;;5087731;28;44379;-72
2022/01/21 10:33:23;;;;;;;9.97;5.60;;;16.20;64.30;;;;;;5069587;28;45212;-72
2022/01/21 10:35:51;;;;;;;15.77;6.27;;;16.20;64.40;;;;;;5055877;28;44071;-73
2022/01/21 10:38:23;;;;;;;13.90;6.63;;;16.20;64.40;;;;;;5089726;28;43910;-72
2022/01/21 10:40:51;;;;;;;14.03;6.60;;;16.20;64.10;;;;;;5072319;28;44355;-72
2022/01/21 10:43:22;;;;;;;19.27;7.43;;;16.30;64.10;;;;;;5088946;28;43993;-72
2022/01/21 10:45:52;;;;;;;15.23;7.27;;;16.40;63.80;;;;;;5089079;28;43981;-73
2022/01/21 10:48:22;;;;;;;19.83;7.53;;;16.60;63.30;;;;;;5055741;28;44057;-72
2022/01/21 10:51:17;;;;;;;16.20;6.77;;;16.70;62.80;;;;;;5090140;27;43694;-73
2022/01/21 10:53:45;;;;;;;19.87;8.07;;;16.70;62.70;;;;;;5088322;28;43961;-72
2022/01/21 10:56:15;;;;;;;14.73;6.60;;;16.70;63.00;;;;;;5055107;28;43839;-72
2022/01/21 10:58:44;;;;;;;13.43;6.60;;;16.60;63.20;;;;;;5065449;28;44000;-72
2022/01/21 11:01:17;;;;;;;14.13;7.10;;;16.50;63.40;;;;;;5064829;28;44276;-72
2022/01/21 11:03:58;;;;;;;15.27;7.20;;;16.50;63.70;;;;;;5068263;28;44591;-71
2022/01/21 11:06:29;;;;;;;13.30;6.93;;;16.40;63.90;;;;;;5088207;28;44332;-72
2022/01/21 11:09:22;;;;;;;14.00;6.53;;;16.40;64.10;;;;;;5072468;28;43988;-72
2022/01/21 11:11:51;;;;;;;14.77;6.73;;;16.30;64.20;;;;;;5067619;28;44687;-72
2022/01/21 11:14:19;;;;;;;13.80;6.67;;;16.30;64.40;;;;;;5088262;27;43900;-73
2022/01/21 11:16:50;;;;;;;14.27;6.90;;;16.30;64.50;;;;;;5088202;28;43991;-72
2022/01/21 11:19:39;;;;;;;12.47;6.73;;;16.30;64.50;;;;;;5074710;28;44036;-71
2022/01/21 11:22:08;;;;;;;13.43;6.93;;;16.30;64.40;;;;;;5070734;27;43939;-72
2022/01/21 11:24:36;;;;;;;15.60;7.20;;;16.30;64.20;;;;;;5086880;28;44083;-73
2022/01/21 11:27:12;;;;;;;14.93;6.87;;;16.40;63.80;;;;;;5088175;28;43769;-73
2022/01/21 11:29:40;;;;;;;13.57;6.60;;;16.60;63.20;;;;;;5071243;28;43996;-73
2022/01/21 11:32:09;;;;;;;12.33;6.37;;;16.60;63.00;;;;;;5071505;28;45012;-72
2022/01/21 11:34:39;;;;;;;12.57;6.37;;;16.60;63.20;;;;;;5071144;28;43997;-73
2022/01/21 11:37:08;;;;;;;11.77;5.87;;;16.60;63.40;;;;;;5087959;28;43954;-71
2022/01/21 11:39:36;;;;;;;11.67;6.40;;;16.60;63.80;;;;;;5087917;28;43597;-72
2022/01/21 11:42:07;;;;;;;9.70;6.50;;;16.50;64.00;;;;;;5087455;28;43953;-72
2022/01/21 11:44:39;;;;;;;10.60;6.40;;;16.40;64.10;;;;;;5087525;28;43956;-72
2022/01/21 11:47:27;;;;;;;10.37;5.90;;;16.40;64.10;;;;;;5071521;28;43836;-73
2022/01/21 11:50:05;;;;;;;10.70;5.77;;;16.30;64.20;;;;;;5074821;28;43978;-72
2022/01/21 11:52:36;;;;;;;11.20;5.83;;;16.30;64.40;;;;;;5071433;28;44279;-73
2022/01/21 11:55:06;;;;;;;11.90;6.20;;;16.30;64.50;;;;;;5087046;28;43929;-72
2022/01/21 11:57:36;;;;;;;10.33;5.50;;;16.30;64.60;;;;;;5087891;28;43326;-73
2022/01/21 12:00:16;;;;;;;9.90;6.07;;;16.30;64.50;;;;;;5071093;28;43879;-73
2022/01/21 12:02:49;;;;;;;14.03;6.23;;;16.20;64.40;;;;;;5072173;28;44114;-73
2022/01/21 12:05:26;;;;;;;11.90;6.17;;;16.30;64.50;;;;;;5044105;28;43937;-73
2022/01/21 12:07:54;;;;;;;12.53;6.27;;;16.40;64.10;;;;;;5081806;28;44140;-73
2022/01/21 12:10:36;;;;;;;10.23;5.63;;;16.50;63.40;;;;;;5071158;28;43937;-73
2022/01/21 12:13:10;;;;;;;11.13;5.90;;;16.60;63.10;;;;;;5087148;28;43990;-73
2022/01/21 12:15:57;;;;;;;10.03;5.90;;;16.60;63.20;;;;;;5071418;28;43879;-73
2022/01/21 12:19:18;;;;;;;9.23;5.97;;;16.60;63.50;;;;;;5074212;28;44060;-72
2022/01/21 12:21:49;;;;;;;7.07;5.47;;;16.50;63.70;;;;;;5087217;28;43879;-72
2022/01/21 12:24:17;;;;;;;8.83;5.30;;;16.40;63.90;;;;;;5070568;28;43949;-73
2022/01/21 12:26:59;;;;;;;6.67;5.10;;;16.40;64.10;;;;;;5070103;28;43954;-72
2022/01/21 12:29:28;;;;;;;8.70;5.73;;;16.30;64.20;;;;;;5053749;28;43401;-72
2022/01/21 12:32:05;;;;;;;11.13;5.33;;;16.30;64.40;;;;;;5070390;28;43924;-71
2022/01/21 12:35:19;;;;;;;46.50;7.53;;;16.30;64.60;;;;;;5084923;27;44396;-73
2022/01/21 12:40:53;;;;;;;12.37;5.80;;;16.20;64.50;;;;;;5081626;28;43856;-72
2022/01/21 12:43:42;;;;;;;7.33;5.13;;;16.20;64.40;;;;;;5070292;28;43978;-73
2022/01/21 12:46:11;;;;;;;7.93;5.03;;;16.30;64.40;;;;;;5053320;28;45003;-73
2022/01/21 12:48:40;;;;;;;10.83;5.40;;;16.40;63.90;;;;;;5069621;28;43888;-72
2022/01/21 12:51:45;;;;;;;7.20;4.77;;;16.40;63.80;;;;;;5084190;28;43941;-72
2022/01/21 12:57:00;;;;;;;12.87;5.17;;;16.40;64.10;;;;;;5072336;28;45142;-73
2022/01/21 12:59:29;;;;;;;7.83;4.87;;;16.30;64.10;;;;;;5086466;28;43965;-74
2022/01/21 13:01:59;;;;;;;8.87;5.03;;;16.30;64.30;;;;;;5086806;28;43424;-71
2022/01/21 13:04:33;;;;;;;9.53;5.13;;;16.30;64.90;;;;;;5066598;28;43443;-72
2022/01/21 13:07:07;;;;;;;7.93;4.53;;;16.30;65.10;;;;;;5064239;28;43945;-70
2022/01/21 13:10:05;;;;;;;8.67;4.97;;;16.20;65.30;;;;;;5086340;28;43915;-72
2022/01/21 13:12:47;;;;;;;8.30;4.60;;;16.20;65.30;;;;;;5070353;28;44064;-71
2022/01/21 13:15:15;;;;;;;9.53;4.90;;;16.20;65.50;;;;;;5081905;28;44050;-72
2022/01/21 13:17:43;;;;;;;8.17;4.90;;;16.20;65.30;;;;;;5069074;28;44359;-70
2022/01/21 13:20:11;;;;;;;6.73;5.00;;;16.20;65.00;;;;;;5069369;28;43866;-71
2022/01/21 13:22:39;;;;;;;7.37;4.77;;;16.20;64.80;;;;;;5069033;28;43415;-72
2022/01/21 13:25:15;;;;;;;11.47;5.03;;;16.20;64.60;;;;;;5086241;28;43477;-70
2022/01/21 13:27:45;;;;;;;8.87;4.93;;;16.30;64.40;;;;;;5085819;28;44027;-70
2022/01/21 13:30:15;;;;;;;6.50;4.60;;;16.50;63.80;;;;;;5068824;28;43771;-69
2022/01/21 13:32:43;;;;;;;5.40;4.57;;;16.60;63.20;;;;;;5068917;28;43957;-71
2022/01/21 13:35:12;;;;;;;8.37;4.43;;;16.70;62.90;;;;;;5069672;28;43952;-74
2022/01/21 13:37:41;;;;;;;8.57;4.73;;;16.70;63.40;;;;;;5085489;27;44007;-72
2022/01/21 13:40:19;;;;;;;5.97;4.47;;;16.70;63.90;;;;;;5085798;28;43959;-73
2022/01/21 13:42:47;;;;;;;4.17;3.87;;;16.60;64.60;;;;;;5051670;28;44038;-72
2022/01/21 13:45:15;;;;;;;5.20;4.07;;;16.50;64.10;;;;;;5068930;27;44019;-73
2022/01/21 13:47:45;;;;;;;4.50;3.80;;;16.50;64.70;;;;;;5068715;28;43989;-73
2022/01/21 13:50:14;;;;;;;4.73;4.23;;;16.40;64.30;;;;;;5069131;28;43970;-72
2022/01/21 13:52:44;;;;;;;5.83;3.90;;;16.40;64.40;;;;;;5069239;28;43415;-72
2022/01/21 13:55:26;;;;;;;7.27;4.00;;;16.30;64.50;;;;;;5069314;28;44193;-73
2022/01/21 13:57:54;;;;;;;5.20;3.93;;;16.30;65.20;;;;;;5062606;28;45062;-73